sensor_id;sensor_type;location;lat;lon;timestamp;pressure;altitude;pressure_sealevel;temperature;humidity
42289;BME280;30230;47.520;19.016;2022-11-12T00:01:24;100620.72;;;8.97;100.00
42289;BME280;30230;47.520;19.016;2022-11-12T00:03:24;100625.91;;;8.91;100.00
42289;BME280;30230;47.520;19.016;2022-11-12T00:05:24;100619.69;;;8.90;100.00
42289;BME280;30230;47.520;19.016;2022-11-12T00:07:25;100605.19;;;8.91;100.00
42289;BME280;30230;47.520;19.016;2022-11-12T00:09:25;100600.44;;;8.85;100.00
42289;BME280;30230;47.520;19.016;2022-11-12T00:11:25;100606.13;;;8.82;100.00
42289;BME280;30230;47.520;19.016;2022-11-12T00:13:26;100611.00;;;8.78;100.00
42289;BME280;30230;47.520;19.016;2022-11-12T00:15:26;100607.94;;;8.73;100.00
42289;BME280;30230;47.520;19.016;2022-11-12T00:17:26;100603.03;;;8.69;100.00
42289;BME280;30230;47.520;19.016;2022-11-12T00:19:26;100598.81;;;8.66;100.00
42289;BME280;30230;47.520;19.016;2022-11-12T00:21:27;100592.03;;;8.62;100.00
42289;BME280;30230;47.520;19.016;2022-11-12T00:23:27;100599.63;;;8.58;100.00
42289;BME280;30230;47.520;19.016;2022-11-12T00:25:27;100599.91;;;8.55;100.00
42289;BME280;30230;47.520;19.016;2022-11-12T00:27:28;100607.31;;;8.53;100.00
42289;BME280;30230;47.520;19.016;2022-11-12T00:29:28;100609.31;;;8.51;100.00
42289;BME280;30230;47.520;19.016;2022-11-12T00:31:28;100612.16;;;8.50;100.00
42289;BME280;30230;47.520;19.016;2022-11-12T00:33:29;100607.94;;;8.47;100.00
42289;BME280;30230;47.520;19.016;2022-11-12T00:35:29;100608.94;;;8.46;100.00
42289;BME280;30230;47.520;19.016;2022-11-12T00:37:30;100599.00;;;8.47;100.00
42289;BME280;30230;47.520;19.016;2022-11-12T00:39:30;100590.41;;;8.43;100.00
42289;BME280;30230;47.520;19.016;2022-11-12T00:41:31;100594.78;;;8.44;100.00
42289;BME280;30230;47.520;19.016;2022-11-12T00:43:31;100592.28;;;8.43;100.00
42289;BME280;30230;47.520;19.016;2022-11-12T00:45:31;100591.41;;;8.42;100.00
42289;BME280;30230;47.520;19.016;2022-11-12T00:47:32;100584.03;;;8.44;100.00
42289;BME280;30230;47.520;19.016;2022-11-12T00:49:32;100583.00;;;8.45;100.00
42289;BME280;30230;47.520;19.016;2022-11-12T00:51:32;100583.00;;;8.45;100.00
42289;BME280;30230;47.520;19.016;2022-11-12T00:53:33;100578.16;;;8.49;100.00
42289;BME280;30230;47.520;19.016;2022-11-12T00:55:33;100584.41;;;8.49;100.00
42289;BME280;30230;47.520;19.016;2022-11-12T00:57:33;100571.78;;;8.50;100.00
42289;BME280;30230;47.520;19.016;2022-11-12T00:59:33;100576.16;;;8.51;100.00
42289;BME280;30230;47.520;19.016;2022-11-12T01:01:34;100577.06;;;8.59;100.00
42289;BME280;30230;47.520;19.016;2022-11-12T01:03:34;100570.03;;;8.67;100.00
42289;BME280;30230;47.520;19.016;2022-11-12T01:05:35;100570.88;;;8.67;100.00
42289;BME280;30230;47.520;19.016;2022-11-12T01:07:35;100573.56;;;8.67;100.00
42289;BME280;30230;47.520;19.016;2022-11-12T01:09:35;100568.88;;;8.69;100.00
42289;BME280;30230;47.520;19.016;2022-11-12T01:11:36;100555.22;;;8.71;100.00
42289;BME280;30230;47.520;19.016;2022-11-12T01:13:37;100565.69;;;8.74;100.00
42289;BME280;30230;47.520;19.016;2022-11-12T01:15:40;100568.22;;;8.75;100.00
42289;BME280;30230;47.520;19.016;2022-11-12T01:17:41;100562.19;;;8.81;100.00
42289;BME280;30230;47.520;19.016;2022-11-12T01:19:42;100554.94;;;8.82;100.00
42289;BME280;30230;47.520;19.016;2022-11-12T01:21:42;100550.25;;;8.84;100.00
42289;BME280;30230;47.520;19.016;2022-11-12T01:23:43;100554.66;;;8.85;100.00
42289;BME280;30230;47.520;19.016;2022-11-12T01:25:43;100553.63;;;8.86;100.00
42289;BME280;30230;47.520;19.016;2022-11-12T01:27:43;100562.72;;;8.85;100.00
42289;BME280;30230;47.520;19.016;2022-11-12T01:29:43;100555.78;;;8.82;100.00
42289;BME280;30230;47.520;19.016;2022-11-12T01:31:44;100552.78;;;8.85;100.00
42289;BME280;30230;47.520;19.016;2022-11-12T01:33:45;100560.16;;;8.83;100.00
42289;BME280;30230;47.520;19.016;2022-11-12T01:35:45;100556.31;;;8.86;100.00
42289;BME280;30230;47.520;19.016;2022-11-12T01:37:45;100550.94;;;8.86;100.00
42289;BME280;30230;47.520;19.016;2022-11-12T01:39:46;100548.91;;;8.88;100.00
42289;BME280;30230;47.520;19.016;2022-11-12T01:41:46;100557.00;;;8.88;99.69
42289;BME280;30230;47.520;19.016;2022-11-12T01:43:46;100553.31;;;8.89;99.62
42289;BME280;30230;47.520;19.016;2022-11-12T01:45:47;100546.22;;;8.88;99.41
42289;BME280;30230;47.520;19.016;2022-11-12T01:47:49;100541.53;;;8.90;99.38
42289;BME280;30230;47.520;19.016;2022-11-12T01:49:51;100548.78;;;8.90;99.53
42289;BME280;30230;47.520;19.016;2022-11-12T01:51:53;100548.59;;;8.91;99.63
42289;BME280;30230;47.520;19.016;2022-11-12T01:53:55;100543.69;;;8.86;98.92
42289;BME280;30230;47.520;19.016;2022-11-12T01:55:57;100539.50;;;8.84;99.08
42289;BME280;30230;47.520;19.016;2022-11-12T01:58:09;100539.50;;;8.84;99.48
42289;BME280;30230;47.520;19.016;2022-11-12T02:00:10;100545.50;;;8.78;99.46
42289;BME280;30230;47.520;19.016;2022-11-12T02:02:11;100541.59;;;8.72;99.64
42289;BME280;30230;47.520;19.016;2022-11-12T02:04:11;100539.91;;;8.71;100.00
42289;BME280;30230;47.520;19.016;2022-11-12T02:06:12;100544.75;;;8.68;99.93
42289;BME280;30230;47.520;19.016;2022-11-12T02:08:13;100544.56;;;8.61;100.00
42289;BME280;30230;47.520;19.016;2022-11-12T02:10:14;100540.97;;;8.52;100.00
42289;BME280;30230;47.520;19.016;2022-11-12T02:12:14;100538.78;;;8.48;100.00
42289;BME280;30230;47.520;19.016;2022-11-12T02:14:33;100524.09;;;8.42;100.00
42289;BME280;30230;47.520;19.016;2022-11-12T02:16:35;100532.09;;;8.34;100.00
42289;BME280;30230;47.520;19.016;2022-11-12T02:18:36;100521.13;;;8.27;100.00
42289;BME280;30230;47.520;19.016;2022-11-12T02:20:36;100519.56;;;8.25;100.00
42289;BME280;30230;47.520;19.016;2022-11-12T02:22:37;100523.44;;;8.22;100.00
42289;BME280;30230;47.520;19.016;2022-11-12T02:24:37;100528.44;;;8.17;100.00
42289;BME280;30230;47.520;19.016;2022-11-12T02:26:39;100534.97;;;8.15;100.00
42289;BME280;30230;47.520;19.016;2022-11-12T02:28:40;100536.63;;;8.07;100.00
42289;BME280;30230;47.520;19.016;2022-11-12T02:30:42;100533.56;;;8.02;100.00
42289;BME280;30230;47.520;19.016;2022-11-12T02:32:42;100537.16;;;7.93;100.00
42289;BME280;30230;47.520;19.016;2022-11-12T02:34:43;100534.25;;;7.87;100.00
42289;BME280;30230;47.520;19.016;2022-11-12T02:36:44;100536.25;;;7.84;100.00
42289;BME280;30230;47.520;19.016;2022-11-12T02:38:44;100536.25;;;7.84;100.00
42289;BME280;30230;47.520;19.016;2022-11-12T02:40:44;100537.41;;;7.82;100.00
42289;BME280;30230;47.520;19.016;2022-11-12T02:42:44;100535.84;;;7.79;100.00
42289;BME280;30230;47.520;19.016;2022-11-12T02:44:44;100543.41;;;7.76;100.00
42289;BME280;30230;47.520;19.016;2022-11-12T02:46:45;100542.72;;;7.74;100.00
42289;BME280;30230;47.520;19.016;2022-11-12T02:48:45;100544.38;;;7.75;100.00
42289;BME280;30230;47.520;19.016;2022-11-12T02:50:46;100540.41;;;7.79;100.00
42289;BME280;30230;47.520;19.016;2022-11-12T02:52:46;100537.63;;;7.89;100.00
42289;BME280;30230;47.520;19.016;2022-11-12T02:54:46;100541.16;;;7.89;100.00
42289;BME280;30230;47.520;19.016;2022-11-12T02:56:47;100547.75;;;7.95;100.00
42289;BME280;30230;47.520;19.016;2022-11-12T02:58:47;100541.25;;;7.97;100.00
42289;BME280;30230;47.520;19.016;2022-11-12T03:00:47;100535.69;;;7.99;100.00
42289;BME280;30230;47.520;19.016;2022-11-12T03:02:48;100544.63;;;7.99;100.00
42289;BME280;30230;47.520;19.016;2022-11-12T03:05:00;100543.59;;;8.00;100.00
42289;BME280;30230;47.520;19.016;2022-11-12T03:07:00;100538.94;;;8.02;100.00
42289;BME280;30230;47.520;19.016;2022-11-12T03:09:01;100546.47;;;7.99;100.00
42289;BME280;30230;47.520;19.016;2022-11-12T03:11:05;100544.94;;;7.96;100.00
42289;BME280;30230;47.520;19.016;2022-11-12T03:13:05;100546.47;;;7.99;100.00
42289;BME280;30230;47.520;19.016;2022-11-12T03:15:05;100543.22;;;7.95;100.00
42289;BME280;30230;47.520;19.016;2022-11-12T03:17:06;100548.22;;;7.90;100.00
42289;BME280;30230;47.520;19.016;2022-11-12T03:19:06;100542.78;;;7.82;100.00
42289;BME280;30230;47.520;19.016;2022-11-12T03:21:06;100549.31;;;7.79;100.00
42289;BME280;30230;47.520;19.016;2022-11-12T03:23:08;100553.72;;;7.80;100.00
42289;BME280;30230;47.520;19.016;2022-11-12T03:25:08;100552.31;;;7.76;100.00
42289;BME280;30230;47.520;19.016;2022-11-12T03:27:09;100556.16;;;7.74;100.00
42289;BME280;30230;47.520;19.016;2022-11-12T03:29:09;100553.34;;;7.75;100.00
42289;BME280;30230;47.520;19.016;2022-11-12T03:31:09;100558.31;;;7.70;100.00
42289;BME280;30230;47.520;19.016;2022-11-12T03:33:11;100559.63;;;7.66;100.00
42289;BME280;30230;47.520;19.016;2022-11-12T03:35:12;100561.22;;;7.59;100.00
42289;BME280;30230;47.520;19.016;2022-11-12T03:37:12;100567.22;;;7.53;100.00
42289;BME280;30230;47.520;19.016;2022-11-12T03:39:13;100557.94;;;7.65;100.00
42289;BME280;30230;47.520;19.016;2022-11-12T03:41:13;100558.63;;;7.67;100.00
42289;BME280;30230;47.520;19.016;2022-11-12T03:43:13;100567.38;;;7.51;100.00
42289;BME280;30230;47.520;19.016;2022-11-12T03:45:14;100563.75;;;7.43;100.00
42289;BME280;30230;47.520;19.016;2022-11-12T03:47:14;100573.25;;;7.37;100.00
42289;BME280;30230;47.520;19.016;2022-11-12T03:49:15;100568.03;;;7.36;100.00
42289;BME280;30230;47.520;19.016;2022-11-12T03:51:15;100568.66;;;7.29;100.00
42289;BME280;30230;47.520;19.016;2022-11-12T03:53:16;100562.44;;;7.29;100.00
42289;BME280;30230;47.520;19.016;2022-11-12T03:55:17;100564.13;;;7.30;100.00
42289;BME280;30230;47.520;19.016;2022-11-12T03:57:17;100560.59;;;7.29;100.00
42289;BME280;30230;47.520;19.016;2022-11-12T03:59:18;100569.72;;;7.37;100.00
42289;BME280;30230;47.520;19.016;2022-11-12T04:01:18;100573.47;;;7.26;100.00
42289;BME280;30230;47.520;19.016;2022-11-12T04:03:18;100572.06;;;7.22;100.00
42289;BME280;30230;47.520;19.016;2022-11-12T04:05:19;100572.38;;;7.19;100.00
42289;BME280;30230;47.520;19.016;2022-11-12T04:07:37;100571.38;;;7.20;100.00
42289;BME280;30230;47.520;19.016;2022-11-12T04:09:56;100561.09;;;7.15;100.00
42289;BME280;30230;47.520;19.016;2022-11-12T04:11:56;100563.38;;;7.10;100.00
42289;BME280;30230;47.520;19.016;2022-11-12T04:14:17;100558.03;;;7.00;100.00
42289;BME280;30230;47.520;19.016;2022-11-12T04:16:18;100559.25;;;6.88;100.00
42289;BME280;30230;47.520;19.016;2022-11-12T04:18:37;100552.88;;;6.89;100.00
42289;BME280;30230;47.520;19.016;2022-11-12T04:20:56;100553.56;;;6.91;100.00
42289;BME280;30230;47.520;19.016;2022-11-12T04:23:15;100559.25;;;6.88;100.00
42289;BME280;30230;47.520;19.016;2022-11-12T04:25:15;100553.03;;;6.88;100.00
42289;BME280;30230;47.520;19.016;2022-11-12T04:27:34;100550.19;;;6.89;100.00
42289;BME280;30230;47.520;19.016;2022-11-12T04:29:34;100554.56;;;6.90;100.00
42289;BME280;30230;47.520;19.016;2022-11-12T04:31:53;100560.34;;;6.95;100.00
42289;BME280;30230;47.520;19.016;2022-11-12T04:33:53;100566.31;;;6.89;100.00
42289;BME280;30230;47.520;19.016;2022-11-12T04:35:53;100557.00;;;6.84;100.00
42289;BME280;30230;47.520;19.016;2022-11-12T04:37:54;100554.75;;;6.79;100.00
42289;BME280;30230;47.520;19.016;2022-11-12T04:39:54;100556.88;;;6.75;100.00
42289;BME280;30230;47.520;19.016;2022-11-12T04:41:54;100552.78;;;6.71;100.00
42289;BME280;30230;47.520;19.016;2022-11-12T04:44:13;100548.56;;;6.69;100.00
42289;BME280;30230;47.520;19.016;2022-11-12T04:46:32;100546.16;;;6.66;100.00
42289;BME280;30230;47.520;19.016;2022-11-12T04:48:32;100552.84;;;6.62;100.00
42289;BME280;30230;47.520;19.016;2022-11-12T04:50:32;100551.44;;;6.58;100.00
42289;BME280;30230;47.520;19.016;2022-11-12T04:52:33;100549.88;;;6.55;100.00
42289;BME280;30230;47.520;19.016;2022-11-12T04:54:33;100551.44;;;6.58;100.00
42289;BME280;30230;47.520;19.016;2022-11-12T04:56:33;100555.25;;;6.55;100.00
42289;BME280;30230;47.520;19.016;2022-11-12T04:58:33;100554.72;;;6.51;100.00
42289;BME280;30230;47.520;19.016;2022-11-12T05:00:34;100552.72;;;6.53;100.00
42289;BME280;30230;47.520;19.016;2022-11-12T05:02:34;100569.53;;;6.56;100.00
42289;BME280;30230;47.520;19.016;2022-11-12T05:04:34;100563.31;;;6.55;100.00
42289;BME280;30230;47.520;19.016;2022-11-12T05:06:34;100574.47;;;6.50;100.00
42289;BME280;30230;47.520;19.016;2022-11-12T05:08:53;100577.75;;;6.44;100.00
42289;BME280;30230;47.520;19.016;2022-11-12T05:10:53;100570.41;;;6.46;100.00
42289;BME280;30230;47.520;19.016;2022-11-12T05:12:54;100568.44;;;6.39;100.00
42289;BME280;30230;47.520;19.016;2022-11-12T05:14:54;100568.59;;;6.37;100.00
42289;BME280;30230;47.520;19.016;2022-11-12T05:16:54;100566.78;;;6.28;100.00
42289;BME280;30230;47.520;19.016;2022-11-12T05:18:54;100557.19;;;6.25;100.00
42289;BME280;30230;47.520;19.016;2022-11-12T05:20:55;100564.25;;;6.26;100.00
42289;BME280;30230;47.520;19.016;2022-11-12T05:22:55;100566.78;;;6.28;100.00
42289;BME280;30230;47.520;19.016;2022-11-12T05:24:55;100566.19;;;6.24;100.00
42289;BME280;30230;47.520;19.016;2022-11-12T05:26:55;100570.72;;;6.24;100.00
42289;BME280;30230;47.520;19.016;2022-11-12T05:28:56;100575.56;;;6.20;100.00
42289;BME280;30230;47.520;19.016;2022-11-12T05:30:56;100574.41;;;6.23;100.00
42289;BME280;30230;47.520;19.016;2022-11-12T05:32:56;100575.41;;;6.22;100.00
42289;BME280;30230;47.520;19.016;2022-11-12T05:34:56;100569.03;;;6.23;100.00
42289;BME280;30230;47.520;19.016;2022-11-12T05:36:57;100562.97;;;6.21;100.00
42289;BME280;30230;47.520;19.016;2022-11-12T05:38:57;100564.50;;;6.23;100.00
42289;BME280;30230;47.520;19.016;2022-11-12T05:40:58;100567.63;;;6.19;100.00
42289;BME280;30230;47.520;19.016;2022-11-12T05:42:58;100558.31;;;6.13;100.00
42289;BME280;30230;47.520;19.016;2022-11-12T05:44:58;100560.16;;;6.13;100.00
42289;BME280;30230;47.520;19.016;2022-11-12T05:46:58;100559.16;;;6.14;100.00
42289;BME280;30230;47.520;19.016;2022-11-12T05:48:59;100573.00;;;6.19;100.00
42289;BME280;30230;47.520;19.016;2022-11-12T05:50:59;100578.94;;;6.22;100.00
42289;BME280;30230;47.520;19.016;2022-11-12T05:52:59;100583.44;;;6.22;100.00
42289;BME280;30230;47.520;19.016;2022-11-12T05:54:59;100577.50;;;6.28;100.00
42289;BME280;30230;47.520;19.016;2022-11-12T05:56:59;100574.25;;;6.24;100.00
42289;BME280;30230;47.520;19.016;2022-11-12T05:59:00;100577.50;;;6.28;100.00
42289;BME280;30230;47.520;19.016;2022-11-12T06:01:01;100581.88;;;6.29;100.00
42289;BME280;30230;47.520;19.016;2022-11-12T06:03:01;100594.69;;;6.55;100.00
42289;BME280;30230;47.520;19.016;2022-11-12T06:05:02;100593.69;;;6.56;100.00
42289;BME280;30230;47.520;19.016;2022-11-12T06:07:02;100592.31;;;6.51;100.00
42289;BME280;30230;47.520;19.016;2022-11-12T06:09:03;100593.00;;;6.53;100.00
42289;BME280;30230;47.520;19.016;2022-11-12T06:11:03;100594.69;;;6.55;100.00
42289;BME280;30230;47.520;19.016;2022-11-12T06:13:03;100595.81;;;6.52;100.00
42289;BME280;30230;47.520;19.016;2022-11-12T06:15:04;100602.72;;;6.55;100.00
42289;BME280;30230;47.520;19.016;2022-11-12T06:17:04;100609.50;;;6.59;100.00
42289;BME280;30230;47.520;19.016;2022-11-12T06:19:04;100616.41;;;6.61;100.00
42289;BME280;30230;47.520;19.016;2022-11-12T06:21:06;100616.41;;;6.61;100.00
42289;BME280;30230;47.520;19.016;2022-11-12T06:23:18;100619.50;;;6.66;100.00
42289;BME280;30230;47.520;19.016;2022-11-12T06:25:19;100615.13;;;6.65;100.00
42289;BME280;30230;47.520;19.016;2022-11-12T06:27:19;100620.66;;;6.64;100.00
42289;BME280;30230;47.520;19.016;2022-11-12T06:29:19;100628.03;;;6.62;100.00
42289;BME280;30230;47.520;19.016;2022-11-12T06:31:20;100628.72;;;6.64;100.00
42289;BME280;30230;47.520;19.016;2022-11-12T06:33:20;100627.72;;;6.65;100.00
42289;BME280;30230;47.520;19.016;2022-11-12T06:35:20;100635.19;;;6.61;100.00
42289;BME280;30230;47.520;19.016;2022-11-12T06:37:21;100643.41;;;6.60;100.00
42289;BME280;30230;47.520;19.016;2022-11-12T06:39:21;100640.03;;;6.58;100.00
42289;BME280;30230;47.520;19.016;2022-11-12T06:41:21;100636.91;;;6.62;100.00
42289;BME280;30230;47.520;19.016;2022-11-12T06:43:22;100630.97;;;6.68;100.00
42289;BME280;30230;47.520;19.016;2022-11-12T06:45:22;100635.19;;;6.71;100.00
42289;BME280;30230;47.520;19.016;2022-11-12T06:47:22;100634.50;;;6.69;100.00
42289;BME280;30230;47.520;19.016;2022-11-12T06:49:22;100641.28;;;6.63;100.00
42289;BME280;30230;47.520;19.016;2022-11-12T06:51:23;100643.56;;;6.58;100.00
42289;BME280;30230;47.520;19.016;2022-11-12T06:53:24;100640.47;;;6.53;100.00
42289;BME280;30230;47.520;19.016;2022-11-12T06:55:25;100641.59;;;6.50;100.00
42289;BME280;30230;47.520;19.016;2022-11-12T06:57:25;100641.03;;;6.47;100.00
42289;BME280;30230;47.520;19.016;2022-11-12T06:59:25;100632.56;;;6.51;100.00
42289;BME280;30230;47.520;19.016;2022-11-12T07:01:25;100639.63;;;6.52;100.00
42289;BME280;30230;47.520;19.016;2022-11-12T07:03:26;100643.31;;;6.51;100.00
42289;BME280;30230;47.520;19.016;2022-11-12T07:05:26;100649.34;;;6.53;100.00
42289;BME280;30230;47.520;19.016;2022-11-12T07:07:27;100653.72;;;6.55;100.00
42289;BME280;30230;47.520;19.016;2022-11-12T07:09:27;100656.56;;;6.63;100.00
42289;BME280;30230;47.520;19.016;2022-11-12T07:11:28;100661.91;;;6.72;100.00
42289;BME280;30230;47.520;19.016;2022-11-12T07:13:29;100663.56;;;6.93;100.00
42289;BME280;30230;47.520;19.016;2022-11-12T07:15:29;100666.03;;;7.14;100.00
42289;BME280;30230;47.520;19.016;2022-11-12T07:17:30;100666.03;;;7.14;100.00
42289;BME280;30230;47.520;19.016;2022-11-12T07:19:30;100663.84;;;7.27;100.00
42289;BME280;30230;47.520;19.016;2022-11-12T07:21:30;100666.66;;;7.35;100.00
42289;BME280;30230;47.520;19.016;2022-11-12T07:23:31;100659.38;;;7.45;100.00
42289;BME280;30230;47.520;19.016;2022-11-12T07:25:32;100654.00;;;7.45;100.00
42289;BME280;30230;47.520;19.016;2022-11-12T07:27:32;100657.97;;;7.69;100.00
42289;BME280;30230;47.520;19.016;2022-11-12T07:29:32;100657.53;;;8.27;100.00
42289;BME280;30230;47.520;19.016;2022-11-12T07:31:32;100661.97;;;8.72;100.00
42289;BME280;30230;47.520;19.016;2022-11-12T07:33:33;100655.94;;;8.78;100.00
42289;BME280;30230;47.520;19.016;2022-11-12T07:35:33;100645.22;;;8.60;100.00
42289;BME280;30230;47.520;19.016;2022-11-12T07:37:33;100650.53;;;8.52;100.00
42289;BME280;30230;47.520;19.016;2022-11-12T07:39:34;100650.25;;;8.37;100.00
42289;BME280;30230;47.520;19.016;2022-11-12T07:41:34;100648.56;;;8.36;100.00
42289;BME280;30230;47.520;19.016;2022-11-12T07:43:35;100646.50;;;8.48;100.00
42289;BME280;30230;47.520;19.016;2022-11-12T07:45:36;100645.69;;;8.55;100.00
42289;BME280;30230;47.520;19.016;2022-11-12T07:47:36;100651.94;;;8.56;100.00
42289;BME280;30230;47.520;19.016;2022-11-12T07:49:37;100645.44;;;8.67;100.00
42289;BME280;30230;47.520;19.016;2022-11-12T07:51:37;100651.56;;;8.77;100.00
42289;BME280;30230;47.520;19.016;2022-11-12T07:53:37;100651.47;;;8.86;100.00
42289;BME280;30230;47.520;19.016;2022-11-12T07:55:37;100658.03;;;8.84;100.00
42289;BME280;30230;47.520;19.016;2022-11-12T07:57:37;100652.66;;;8.84;100.00
42289;BME280;30230;47.520;19.016;2022-11-12T07:59:38;100661.09;;;8.89;100.00
42289;BME280;30230;47.520;19.016;2022-11-12T08:01:39;100654.38;;;8.93;100.00
42289;BME280;30230;47.520;19.016;2022-11-12T08:03:39;100667.00;;;8.93;100.00
42289;BME280;30230;47.520;19.016;2022-11-12T08:05:40;100672.09;;;8.96;100.00
42289;BME280;30230;47.520;19.016;2022-11-12T08:07:40;100664.25;;;9.10;100.00
42289;BME280;30230;47.520;19.016;2022-11-12T08:09:40;100670.25;;;9.04;100.00
42289;BME280;30230;47.520;19.016;2022-11-12T08:11:40;100671.44;;;9.02;100.00
42289;BME280;30230;47.520;19.016;2022-11-12T08:13:41;100679.34;;;9.03;100.00
42289;BME280;30230;47.520;19.016;2022-11-12T08:15:41;100687.50;;;9.11;100.00
42289;BME280;30230;47.520;19.016;2022-11-12T08:17:41;100689.50;;;9.09;100.00
42289;BME280;30230;47.520;19.016;2022-11-12T08:19:42;100680.09;;;9.13;100.00
42289;BME280;30230;47.520;19.016;2022-11-12T08:21:42;100673.59;;;9.24;100.00
42289;BME280;30230;47.520;19.016;2022-11-12T08:23:43;100687.75;;;9.26;100.00
42289;BME280;30230;47.520;19.016;2022-11-12T08:25:44;100685.34;;;9.15;100.00
42289;BME280;30230;47.520;19.016;2022-11-12T08:27:44;100680.09;;;9.13;100.00
42289;BME280;30230;47.520;19.016;2022-11-12T08:29:44;100687.03;;;9.16;100.00
42289;BME280;30230;47.520;19.016;2022-11-12T08:31:45;100683.50;;;9.16;100.00
42289;BME280;30230;47.520;19.016;2022-11-12T08:33:45;100684.47;;;9.14;100.00
42289;BME280;30230;47.520;19.016;2022-11-12T08:35:46;100689.09;;;9.22;100.00
42289;BME280;30230;47.520;19.016;2022-11-12T08:37:46;100681.28;;;9.11;100.00
42289;BME280;30230;47.520;19.016;2022-11-12T08:39:46;100687.16;;;9.14;100.00
42289;BME280;30230;47.520;19.016;2022-11-12T08:41:46;100684.34;;;9.16;100.00
42289;BME280;30230;47.520;19.016;2022-11-12T08:43:47;100686.75;;;9.27;100.00
42289;BME280;30230;47.520;19.016;2022-11-12T08:45:47;100691.94;;;9.21;100.00
42289;BME280;30230;47.520;19.016;2022-11-12T08:47:49;100696.53;;;9.28;100.00
42289;BME280;30230;47.520;19.016;2022-11-12T08:49:49;100689.63;;;9.26;100.00
42289;BME280;30230;47.520;19.016;2022-11-12T08:51:50;100684.06;;;9.35;100.00
42289;BME280;30230;47.520;19.016;2022-11-12T08:53:50;100690.91;;;9.56;100.00
42289;BME280;30230;47.520;19.016;2022-11-12T08:55:54;100700.56;;;9.58;100.00
42289;BME280;30230;47.520;19.016;2022-11-12T08:57:54;100698.66;;;9.51;100.00
42289;BME280;30230;47.520;19.016;2022-11-12T08:59:54;100700.88;;;9.55;100.00
42289;BME280;30230;47.520;19.016;2022-11-12T09:01:55;100699.84;;;9.48;100.00
42289;BME280;30230;47.520;19.016;2022-11-12T09:03:55;100696.47;;;9.54;100.00
42289;BME280;30230;47.520;19.016;2022-11-12T09:05:55;100708.22;;;9.37;100.00
42289;BME280;30230;47.520;19.016;2022-11-12T09:08:02;100711.22;;;9.34;100.00
42289;BME280;30230;47.520;19.016;2022-11-12T09:10:04;100713.88;;;9.26;100.00
42289;BME280;30230;47.520;19.016;2022-11-12T09:12:04;100719.00;;;9.37;100.00
42289;BME280;30230;47.520;19.016;2022-11-12T09:14:05;100720.47;;;9.31;100.00
42289;BME280;30230;47.520;19.016;2022-11-12T09:16:05;100721.97;;;9.26;100.00
42289;BME280;30230;47.520;19.016;2022-11-12T09:18:09;100724.31;;;9.21;100.00
42289;BME280;30230;47.520;19.016;2022-11-12T09:20:10;100730.09;;;9.34;100.00
42289;BME280;30230;47.520;19.016;2022-11-12T09:22:10;100726.06;;;9.38;100.00
42289;BME280;30230;47.520;19.016;2022-11-12T09:24:10;100729.59;;;9.30;100.00
42289;BME280;30230;47.520;19.016;2022-11-12T09:26:10;100726.63;;;9.42;100.00
42289;BME280;30230;47.520;19.016;2022-11-12T09:28:12;100733.22;;;9.55;100.00
42289;BME280;30230;47.520;19.016;2022-11-12T09:30:13;100735.91;;;9.47;100.00
42289;BME280;30230;47.520;19.016;2022-11-12T09:32:13;100739.75;;;9.45;100.00
42289;BME280;30230;47.520;19.016;2022-11-12T09:34:13;100741.31;;;9.47;100.00
42289;BME280;30230;47.520;19.016;2022-11-12T09:36:14;100739.94;;;9.43;100.00
42289;BME280;30230;47.520;19.016;2022-11-12T09:38:16;100729.88;;;9.53;100.00
42289;BME280;30230;47.520;19.016;2022-11-12T09:40:17;100747.91;;;9.53;100.00
42289;BME280;30230;47.520;19.016;2022-11-12T09:42:20;100734.19;;;9.80;100.00
42289;BME280;30230;47.520;19.016;2022-11-12T09:44:21;100734.03;;;9.82;100.00
42289;BME280;30230;47.520;19.016;2022-11-12T09:48:24;100735.91;;;9.89;100.00
42289;BME280;30230;47.520;19.016;2022-11-12T09:52:26;100726.28;;;9.79;100.00
42289;BME280;30230;47.520;19.016;2022-11-12T09:54:31;100738.25;;;9.84;100.00
42289;BME280;30230;47.520;19.016;2022-11-12T09:56:31;100736.75;;;9.90;100.00
42289;BME280;30230;47.520;19.016;2022-11-12T09:58:32;100743.84;;;9.91;100.00
42289;BME280;30230;47.520;19.016;2022-11-12T10:00:32;100744.06;;;9.98;100.00
42289;BME280;30230;47.520;19.016;2022-11-12T10:02:38;100746.28;;;10.10;100.00
42289;BME280;30230;47.520;19.016;2022-11-12T10:09:20;100751.94;;;10.41;99.39
42289;BME280;30230;47.520;19.016;2022-11-12T10:15:53;100756.53;;;10.57;98.05
42289;BME280;30230;47.520;19.016;2022-11-12T10:18:26;100748.63;;;10.72;97.84
42289;BME280;30230;47.520;19.016;2022-11-12T10:20:29;100744.88;;;10.89;96.68
42289;BME280;30230;47.520;19.016;2022-11-12T10:24:37;100743.81;;;11.39;91.10
42289;BME280;30230;47.520;19.016;2022-11-12T10:26:39;100739.50;;;11.69;100.00
42289;BME280;30230;47.520;19.016;2022-11-12T10:30:43;100731.75;;;12.83;100.00
42289;BME280;30230;47.520;19.016;2022-11-12T10:32:44;100731.50;;;13.30;99.90
42289;BME280;30230;47.520;19.016;2022-11-12T10:34:45;100714.94;;;13.40;88.47
42289;BME280;30230;47.520;19.016;2022-11-12T10:36:47;100727.84;;;13.67;91.49
42289;BME280;30230;47.520;19.016;2022-11-12T10:38:50;100729.88;;;13.80;81.49
42289;BME280;30230;47.520;19.016;2022-11-12T10:40:51;100725.47;;;13.94;87.23
42289;BME280;30230;47.520;19.016;2022-11-12T10:42:55;100721.59;;;14.18;84.49
42289;BME280;30230;47.520;19.016;2022-11-12T10:45:03;100724.69;;;14.36;81.90